createdAt,value
2022-09-22T00:01:07.037Z,76998.34
2022-09-22T00:03:44.007Z,77002.41
2022-09-22T00:06:13.786Z,77002.41
2022-09-22T00:08:43.723Z,77002.41
2022-09-22T00:11:16.847Z,77006.44
2022-09-22T00:13:56.925Z,77006.44
2022-09-22T00:16:27.971Z,77010.50
2022-09-22T00:18:55.075Z,77008.47
2022-09-22T00:21:23.600Z,77018.63
2022-09-22T00:23:51.385Z,77018.63
2022-09-22T00:26:21.690Z,77022.66
2022-09-22T00:28:51.216Z,77030.78
2022-09-22T00:31:23.964Z,77030.78
2022-09-22T00:33:53.918Z,77030.78
2022-09-22T00:36:23.900Z,77034.84
2022-09-22T00:38:51.631Z,77036.84
2022-09-22T00:41:21.610Z,77042.94
2022-09-22T00:43:51.326Z,77030.78
2022-09-22T00:46:24.134Z,77026.72
2022-09-22T00:49:10.287Z,77018.63
2022-09-22T00:51:41.005Z,77022.66
2022-09-22T00:54:12.559Z,77022.66
2022-09-22T00:56:50.511Z,77024.69
2022-09-22T00:59:21.158Z,77022.66
2022-09-22T01:01:48.440Z,77018.63
2022-09-22T01:04:17.195Z,77018.63
2022-09-22T01:07:03.310Z,77018.63
2022-09-22T01:09:33.106Z,77018.63
2022-09-22T01:12:02.939Z,77026.72
2022-09-22T01:14:43.237Z,77026.72
2022-09-22T01:17:22.506Z,77026.72
2022-09-22T01:20:27.785Z,77018.63
2022-09-22T01:23:34.928Z,77022.66
2022-09-22T01:26:29.373Z,77026.72
2022-09-22T01:29:24.213Z,77042.94
2022-09-22T01:32:02.934Z,77051.06
2022-09-22T01:34:43.211Z,77055.09
2022-09-22T01:37:20.803Z,77055.09
2022-09-22T01:40:12.191Z,77057.13
2022-09-22T01:42:54.653Z,77059.16
2022-09-22T01:45:26.198Z,77059.16
2022-09-22T01:47:57.635Z,77049.03
2022-09-22T01:50:30.132Z,77047.00
2022-09-22T01:53:03.579Z,77059.16
2022-09-22T01:55:36.093Z,77051.06
2022-09-22T01:58:18.017Z,77059.16
2022-09-22T02:00:55.607Z,77059.16
2022-09-22T02:03:31.723Z,77047.00
2022-09-22T02:06:17.869Z,77030.78
2022-09-22T02:08:50.930Z,77030.78
2022-09-22T02:11:17.999Z,77030.78
2022-09-22T02:13:46.312Z,77028.75
2022-09-22T02:16:15.858Z,77030.78
2022-09-22T02:19:11.951Z,77026.72
2022-09-22T02:21:41.929Z,77018.63
2022-09-22T02:24:25.858Z,77014.56
2022-09-22T02:26:53.051Z,77018.63
2022-09-22T02:29:20.220Z,77014.56
2022-09-22T02:31:47.140Z,77014.56
2022-09-22T02:34:14.083Z,77022.66
2022-09-22T02:36:47.313Z,77014.56
2022-09-22T02:39:29.235Z,77018.63
2022-09-22T02:42:21.320Z,77026.72
2022-09-22T02:44:48.085Z,77034.84
2022-09-22T02:47:22.470Z,77034.84
2022-09-22T02:49:50.789Z,77026.72
2022-09-22T02:52:21.354Z,77030.78
2022-09-22T02:54:48.226Z,77040.91
2022-09-22T02:57:14.979Z,77032.81
2022-09-22T02:59:42.097Z,77032.81
2022-09-22T03:02:09.001Z,77038.88
2022-09-22T03:04:36.091Z,77042.94
2022-09-22T03:07:03.434Z,77051.06
2022-09-22T03:09:30.317Z,77047.00
2022-09-22T03:11:57.079Z,77047.00
2022-09-22T03:14:24.097Z,77044.97
2022-09-22T03:16:50.936Z,77047.00
2022-09-22T03:19:17.713Z,77047.00
2022-09-22T03:21:44.781Z,77047.00
2022-09-22T03:24:11.565Z,77051.06
2022-09-22T03:26:38.718Z,77051.06
2022-09-22T03:29:06.299Z,77042.94
2022-09-22T03:31:33.042Z,77047.00
2022-09-22T03:33:59.880Z,77047.00
2022-09-22T03:36:26.962Z,77038.88
2022-09-22T03:38:53.729Z,77042.94
2022-09-22T03:41:20.562Z,77042.94
2022-09-22T03:43:47.524Z,77038.88
2022-09-22T03:46:14.422Z,77038.88
2022-09-22T03:48:44.948Z,77047.00
2022-09-22T03:51:13.026Z,77047.00
2022-09-22T03:53:40.022Z,77042.94
2022-09-22T03:56:12.710Z,77051.06
2022-09-22T03:58:41.014Z,77051.06
2022-09-22T04:01:10.557Z,77047.00
2022-09-22T04:03:37.918Z,77051.06
2022-09-22T04:06:05.114Z,77042.94
2022-09-22T04:08:32.083Z,77042.94
2022-09-22T04:11:00.154Z,77042.94
2022-09-22T04:13:27.756Z,77042.94
2022-09-22T04:15:54.677Z,77047.00
2022-09-22T04:18:22.097Z,77051.06
2022-09-22T04:20:49.182Z,77038.88
2022-09-22T04:23:17.336Z,77034.84
2022-09-22T04:25:44.208Z,77036.84
2022-09-22T04:28:11.237Z,77032.81
2022-09-22T04:30:38.210Z,77032.81
2022-09-22T04:33:05.437Z,77036.84
2022-09-22T04:35:33.230Z,77028.75
2022-09-22T04:38:00.761Z,77030.78
2022-09-22T04:40:28.010Z,77026.72
2022-09-22T04:42:55.374Z,77026.72
2022-09-22T04:45:22.393Z,77026.72
2022-09-22T04:47:51.553Z,77024.69
2022-09-22T04:50:20.425Z,77018.63
2022-09-22T04:52:49.960Z,77016.59
2022-09-22T04:55:17.286Z,77018.63
2022-09-22T04:57:49.324Z,77010.50
2022-09-22T05:00:17.080Z,77006.44
2022-09-22T05:02:44.012Z,77010.50
2022-09-22T05:05:11.782Z,77004.41
2022-09-22T05:07:46.375Z,76998.34
2022-09-22T05:10:15.294Z,77002.41
2022-09-22T05:12:42.932Z,76998.34
2022-09-22T05:15:12.322Z,77010.50
2022-09-22T05:17:46.572Z,77000.38
2022-09-22T05:20:14.321Z,76986.16
2022-09-22T05:22:42.582Z,76990.22
2022-09-22T05:25:15.595Z,76986.16
2022-09-22T05:27:45.484Z,76982.13
2022-09-22T05:30:13.006Z,76982.13
2022-09-22T05:32:45.806Z,76974.00
2022-09-22T05:35:16.085Z,76965.91
2022-09-22T05:37:44.359Z,76961.84
2022-09-22T05:40:12.596Z,76965.91
2022-09-22T05:42:47.367Z,76955.75
2022-09-22T05:45:15.737Z,76957.78
2022-09-22T05:47:43.058Z,76957.78
2022-09-22T05:50:11.594Z,76953.75
2022-09-22T05:52:39.120Z,76953.75
2022-09-22T05:55:07.864Z,76961.84
2022-09-22T05:57:34.825Z,76951.72
2022-09-22T06:00:02.440Z,76957.78
2022-09-22T06:02:40.113Z,76949.69
2022-09-22T06:05:07.296Z,76949.69
2022-09-22T06:07:34.261Z,76949.69
2022-09-22T06:10:01.751Z,76945.63
2022-09-22T06:12:28.704Z,76941.56
2022-09-22T06:14:56.669Z,76937.53
2022-09-22T06:17:23.819Z,76931.44
2022-09-22T06:19:50.703Z,76929.41
2022-09-22T06:22:18.308Z,76925.34
2022-09-22T06:24:45.695Z,76921.31
2022-09-22T06:27:12.676Z,76929.41
2022-09-22T06:29:41.427Z,76925.34
2022-09-22T06:32:09.537Z,76929.41
2022-09-22T06:34:38.001Z,76925.34
2022-09-22T06:37:08.463Z,76917.25
2022-09-22T06:39:39.065Z,76913.19
2022-09-22T06:42:06.314Z,76905.09
2022-09-22T06:44:33.697Z,76901.03
2022-09-22T06:47:05.535Z,76890.88
2022-09-22T06:49:32.708Z,76878.72
2022-09-22T06:51:59.919Z,76876.69
2022-09-22T06:54:27.452Z,76868.59
2022-09-22T06:56:55.701Z,76866.56
2022-09-22T06:59:22.718Z,76848.31
2022-09-22T07:01:49.603Z,76838.19
2022-09-22T07:04:17.830Z,76844.25
2022-09-22T07:06:45.741Z,76842.22
2022-09-22T07:09:12.808Z,76860.47
2022-09-22T07:11:40.457Z,76856.44
2022-09-22T07:14:08.892Z,76850.34
2022-09-22T07:16:36.676Z,76844.25
2022-09-22T07:19:04.883Z,76836.16
2022-09-22T07:21:36.502Z,76840.22
2022-09-22T07:24:04.691Z,76842.22
2022-09-22T07:26:36.471Z,76840.22
2022-09-22T07:29:07.794Z,76838.19
2022-09-22T07:31:36.597Z,76836.16
2022-09-22T07:34:04.018Z,76840.22
2022-09-22T07:36:34.285Z,76832.09
2022-09-22T07:39:11.129Z,76824.00
2022-09-22T07:41:44.160Z,76807.78
2022-09-22T07:44:32.363Z,76787.50
2022-09-22T07:47:00.686Z,76775.34
2022-09-22T07:49:28.158Z,76771.28
2022-09-22T07:51:57.558Z,76759.13
2022-09-22T07:54:26.002Z,76755.06
2022-09-22T07:56:58.562Z,76746.97
2022-09-22T07:59:26.656Z,76730.75
2022-09-22T08:01:53.755Z,76722.63
2022-09-22T08:04:23.085Z,76716.56
2022-09-22T08:06:53.103Z,76724.66
2022-09-22T08:09:20.063Z,76722.63
2022-09-22T08:11:48.848Z,76714.53
2022-09-22T08:14:17.481Z,76714.53
2022-09-22T08:16:46.131Z,76714.53
2022-09-22T08:19:14.059Z,76722.63
2022-09-22T08:21:49.526Z,76710.47
2022-09-22T08:24:22.470Z,76706.41
2022-09-22T08:26:52.769Z,76722.63
2022-09-22T08:29:21.098Z,76722.63
2022-09-22T08:31:49.318Z,76710.47
2022-09-22T08:34:18.108Z,76722.63
2022-09-22T08:36:48.488Z,76734.78
2022-09-22T08:39:19.269Z,76734.78
2022-09-22T08:41:58.386Z,76714.53
2022-09-22T08:44:49.259Z,76694.25
2022-09-22T08:47:39.907Z,76669.94
2022-09-22T08:50:39.263Z,76641.53
2022-09-22T08:53:12.077Z,76641.53
2022-09-22T08:55:43.209Z,76633.44
2022-09-22T08:58:43.508Z,76617.22
2022-09-22T09:01:52.467Z,76611.13
2022-09-22T09:04:45.040Z,76605.06
2022-09-22T09:07:27.404Z,76601.00
2022-09-22T09:10:25.283Z,76592.91
2022-09-22T09:12:59.175Z,76592.91
2022-09-22T09:15:46.104Z,76568.56
2022-09-22T09:18:23.210Z,76552.34
2022-09-22T09:20:52.183Z,76548.31
2022-09-22T09:25:21.890Z,76544.25
2022-09-22T09:26:17.169Z,76523.97
2022-09-22T09:29:05.891Z,76513.84
2022-09-22T09:31:46.373Z,76507.75
2022-09-22T09:34:18.067Z,76519.91
2022-09-22T09:36:47.081Z,76532.09
2022-09-22T09:39:17.647Z,76536.13
2022-09-22T09:41:48.669Z,76540.19
2022-09-22T09:44:29.329Z,76519.91
2022-09-22T09:47:08.078Z,76503.69
2022-09-22T09:49:35.716Z,76499.66
2022-09-22T09:52:06.922Z,76487.50
2022-09-22T09:54:33.847Z,76467.22
2022-09-22T09:57:15.339Z,76440.88
2022-09-22T10:00:06.273Z,76426.69
2022-09-22T10:02:50.058Z,76430.72
2022-09-22T10:05:16.808Z,76446.94
2022-09-22T10:07:53.382Z,76446.94
2022-09-22T10:10:29.423Z,76455.06
2022-09-22T10:13:05.641Z,76459.09
2022-09-22T10:15:37.676Z,76461.13
2022-09-22T10:18:40.599Z,76463.16
2022-09-22T10:21:18.167Z,76471.28
2022-09-22T10:23:54.206Z,76455.06
2022-09-22T10:26:32.224Z,76451.00
2022-09-22T10:29:19.991Z,76442.91
2022-09-22T10:31:59.643Z,76442.91
2022-09-22T10:34:38.449Z,76438.84
2022-09-22T10:37:12.338Z,76446.94
2022-09-22T10:39:51.332Z,76453.03
2022-09-22T10:42:32.676Z,76446.94
2022-09-22T10:45:07.294Z,76451.00
2022-09-22T10:47:51.865Z,76455.06
2022-09-22T10:50:50.730Z,76442.91
2022-09-22T10:53:29.573Z,76442.91
2022-09-22T10:56:21.090Z,76438.84
2022-09-22T10:59:19.080Z,76434.78
2022-09-22T11:02:15.912Z,76430.72
2022-09-22T11:05:13.990Z,76430.72
2022-09-22T11:08:21.879Z,76418.56
2022-09-22T11:11:27.862Z,76418.56
2022-09-22T11:14:13.485Z,76418.56
2022-09-22T11:17:01.584Z,76422.63
2022-09-22T11:19:34.619Z,76430.72
2022-09-22T11:22:26.448Z,76448.97
2022-09-22T11:25:21.341Z,76451.00
2022-09-22T11:28:01.905Z,76451.00
2022-09-22T11:30:38.449Z,76455.06
2022-09-22T11:33:27.069Z,76451.00
2022-09-22T11:36:07.109Z,76438.84
2022-09-22T11:38:54.323Z,76422.63
2022-09-22T11:41:41.241Z,76426.69
2022-09-22T11:44:38.163Z,76428.69
2022-09-22T11:47:20.153Z,76422.63
2022-09-22T11:49:53.646Z,76422.63
2022-09-22T11:52:33.995Z,76424.66
2022-09-22T11:55:23.763Z,76430.72
2022-09-22T11:57:57.272Z,76430.72
2022-09-22T12:00:24.351Z,76436.81
2022-09-22T12:03:01.975Z,76440.88
2022-09-22T12:05:39.324Z,76442.91
2022-09-22T12:08:11.951Z,76451.00
2022-09-22T12:10:42.722Z,76434.78
2022-09-22T12:13:15.706Z,76434.78
2022-09-22T12:16:13.970Z,76438.84
2022-09-22T12:18:59.062Z,76414.50
2022-09-22T12:21:38.494Z,76410.47
2022-09-22T12:24:10.535Z,76414.50
2022-09-22T12:26:41.059Z,76414.50
2022-09-22T12:29:17.800Z,76404.38
2022-09-22T12:31:49.813Z,76386.13
2022-09-22T12:34:26.906Z,76390.19
2022-09-22T12:36:59.401Z,76400.31
2022-09-22T12:39:31.981Z,76398.28
2022-09-22T12:42:01.723Z,76398.28
2022-09-22T12:44:32.896Z,76406.41
2022-09-22T12:47:04.469Z,76408.44
2022-09-22T12:49:31.956Z,76414.50
2022-09-22T12:51:59.392Z,76422.63
2022-09-22T12:54:28.750Z,76418.56
2022-09-22T12:57:04.824Z,76414.50
2022-09-22T12:59:37.705Z,76430.72
2022-09-22T13:02:17.585Z,76434.78
2022-09-22T13:04:56.496Z,76446.94
2022-09-22T13:07:35.917Z,76451.00
2022-09-22T13:10:21.632Z,76446.94
2022-09-22T13:13:09.955Z,76455.06
2022-09-22T13:15:45.931Z,76446.94
2022-09-22T13:18:31.258Z,76446.94
2022-09-22T13:21:02.950Z,76434.78
2022-09-22T13:23:30.307Z,76426.69
2022-09-22T13:26:12.076Z,76428.69
2022-09-22T13:28:39.120Z,76412.47
2022-09-22T13:31:15.565Z,76418.56
2022-09-22T13:33:43.435Z,76414.50
2022-09-22T13:36:17.581Z,76404.38
2022-09-22T13:38:51.217Z,76406.41
2022-09-22T13:41:24.052Z,76410.47
2022-09-22T13:44:00.005Z,76414.50
2022-09-22T13:46:41.064Z,76406.41
2022-09-22T13:49:25.626Z,76414.50
2022-09-22T13:52:08.595Z,76414.50
2022-09-22T13:54:38.470Z,76410.47
2022-09-22T13:57:16.464Z,76408.44
2022-09-22T13:59:44.418Z,76410.47
2022-09-22T14:02:13.291Z,76414.50
2022-09-22T14:04:50.954Z,76416.53
2022-09-22T14:07:20.477Z,76424.66
2022-09-22T14:09:48.882Z,76422.63
2022-09-22T14:12:16.335Z,76426.69
2022-09-22T14:14:43.492Z,76430.72
2022-09-22T14:17:18.240Z,76420.59
2022-09-22T14:19:55.044Z,76428.69
2022-09-22T14:22:31.104Z,76438.84
2022-09-22T14:25:01.069Z,76434.78
2022-09-22T14:27:38.434Z,76434.78
2022-09-22T14:30:06.860Z,76432.75
2022-09-22T14:32:50.335Z,76426.69
2022-09-22T14:35:37.844Z,76430.72
2022-09-22T14:38:17.086Z,76430.72
2022-09-22T14:40:55.268Z,76430.72
2022-09-22T14:43:33.297Z,76434.78
2022-09-22T14:46:07.338Z,76410.47
2022-09-22T14:48:38.562Z,76390.19
2022-09-22T14:51:13.134Z,76373.97
2022-09-22T14:53:51.642Z,76363.84
2022-09-22T14:56:27.783Z,76378.03
2022-09-22T14:58:58.075Z,76410.47
2022-09-22T15:01:47.603Z,76442.91
2022-09-22T15:04:23.086Z,76438.84
2022-09-22T15:06:56.292Z,76446.94
2022-09-22T15:09:34.587Z,76463.16
2022-09-22T15:12:04.026Z,76473.28
2022-09-22T15:14:37.504Z,76477.34
2022-09-22T15:17:43.920Z,76499.66
2022-09-22T15:20:11.211Z,76503.69
2022-09-22T15:22:38.352Z,76503.69
2022-09-22T15:25:05.676Z,76503.69
2022-09-22T15:27:32.647Z,76515.88
2022-09-22T15:29:59.798Z,76528.03
2022-09-22T15:32:26.883Z,76536.13
2022-09-22T15:34:55.035Z,76540.19
2022-09-22T15:37:22.813Z,76544.25
2022-09-22T15:39:49.984Z,76542.22
2022-09-22T15:42:17.042Z,76536.13
2022-09-22T15:44:44.160Z,76538.16
2022-09-22T15:47:16.810Z,76536.13
2022-09-22T15:49:45.189Z,76536.13
2022-09-22T15:52:12.326Z,76548.31
2022-09-22T15:54:39.170Z,76548.31
2022-09-22T15:57:06.385Z,76544.25
2022-09-22T15:59:33.905Z,76544.25
2022-09-22T16:02:02.352Z,76548.31
2022-09-22T16:04:33.743Z,76556.41
2022-09-22T16:07:08.423Z,76548.31
2022-09-22T16:09:36.037Z,76556.41
2022-09-22T16:12:03.390Z,76566.53
2022-09-22T16:14:30.283Z,76560.47
2022-09-22T16:16:57.256Z,76570.59
2022-09-22T16:19:24.459Z,76576.69
2022-09-22T16:21:54.210Z,76584.78
2022-09-22T16:24:22.703Z,76584.78
2022-09-22T16:26:51.917Z,76582.75
2022-09-22T16:29:19.023Z,76586.81
2022-09-22T16:31:46.043Z,76592.91
2022-09-22T16:34:13.341Z,76594.91
2022-09-22T16:36:41.668Z,76601.00
2022-09-22T16:39:09.031Z,76596.94
2022-09-22T16:41:36.776Z,76592.91
2022-09-22T16:44:05.424Z,76609.09
2022-09-22T16:46:38.447Z,76609.09
2022-09-22T16:49:12.217Z,76621.28
2022-09-22T16:51:44.217Z,76633.44
2022-09-22T16:54:13.826Z,76641.53
2022-09-22T16:56:43.624Z,76645.59
2022-09-22T16:59:15.239Z,76649.66
2022-09-22T17:01:43.789Z,76651.69
2022-09-22T17:04:13.573Z,76657.75
2022-09-22T17:06:41.781Z,76657.75
2022-09-22T17:09:10.508Z,76665.88
2022-09-22T17:11:40.793Z,76667.91
2022-09-22T17:14:12.573Z,76665.88
2022-09-22T17:16:45.637Z,76669.94
2022-09-22T17:19:18.537Z,76671.94
2022-09-22T17:21:50.989Z,76669.94
2022-09-22T17:24:19.424Z,76673.97
2022-09-22T17:27:05.609Z,76665.88
2022-09-22T17:29:33.201Z,76667.91
2022-09-22T17:32:05.779Z,76669.94
2022-09-22T17:34:33.733Z,76649.66
2022-09-22T17:37:03.614Z,76651.69
2022-09-22T17:39:31.944Z,76669.94
2022-09-22T17:41:59.493Z,76663.84
2022-09-22T17:44:28.895Z,76669.94
2022-09-22T17:47:14.554Z,76667.91
2022-09-22T17:50:00.582Z,76669.94
2022-09-22T17:52:33.326Z,76682.09
2022-09-22T17:55:22.057Z,76678.03
2022-09-22T17:57:50.511Z,76688.16
2022-09-22T18:00:21.202Z,76680.06
2022-09-22T18:02:50.228Z,76680.06
2022-09-22T18:05:21.045Z,76690.19
2022-09-22T18:07:53.019Z,76694.25
2022-09-22T18:10:20.946Z,76706.41
2022-09-22T18:12:47.865Z,76698.31
2022-09-22T18:15:17.193Z,76708.44
2022-09-22T18:17:44.690Z,76720.59
2022-09-22T18:20:18.318Z,76722.63
2022-09-22T18:22:49.175Z,76718.56
2022-09-22T18:25:19.393Z,76714.53
2022-09-22T18:27:48.712Z,76710.47
2022-09-22T18:30:18.047Z,76718.56
2022-09-22T18:32:46.467Z,76720.59
2022-09-22T18:35:14.364Z,76724.66
2022-09-22T18:37:41.784Z,76722.63
2022-09-22T18:40:09.664Z,76714.53
2022-09-22T18:42:36.939Z,76730.75
2022-09-22T18:45:04.956Z,76732.75
2022-09-22T18:47:31.840Z,76740.88
2022-09-22T18:49:59.525Z,76740.88
2022-09-22T18:52:26.868Z,76751.00
2022-09-22T18:54:54.218Z,76755.06
2022-09-22T18:57:25.593Z,76763.16
2022-09-22T18:59:54.081Z,76773.31
2022-09-22T19:02:22.574Z,76779.38
2022-09-22T19:04:53.900Z,76771.28
2022-09-22T19:07:42.900Z,76779.38
2022-09-22T19:10:13.412Z,76781.41
2022-09-22T19:12:40.430Z,76783.44
2022-09-22T19:15:13.086Z,76791.56
2022-09-22T19:17:44.330Z,76807.78
2022-09-22T19:20:17.352Z,76809.81
2022-09-22T19:22:45.087Z,76817.91
2022-09-22T19:25:12.377Z,76828.03
2022-09-22T19:27:40.072Z,76815.88
2022-09-22T19:30:09.478Z,76824.00
2022-09-22T19:32:36.553Z,76840.22
2022-09-22T19:35:04.213Z,76840.22
2022-09-22T19:37:31.326Z,76852.38
2022-09-22T19:39:58.608Z,76860.47
2022-09-22T19:42:25.458Z,76868.59
2022-09-22T19:44:52.561Z,76872.66
2022-09-22T19:47:20.362Z,76872.66
2022-09-22T19:49:47.453Z,76874.66
2022-09-22T19:52:14.496Z,76884.81
2022-09-22T19:54:41.342Z,76888.88
2022-09-22T19:57:08.348Z,76888.88
2022-09-22T19:59:35.640Z,76892.91
2022-09-22T20:02:04.589Z,76896.97
2022-09-22T20:04:34.626Z,76903.06
2022-09-22T20:07:02.533Z,76909.13
2022-09-22T20:09:29.740Z,76909.13
2022-09-22T20:11:56.889Z,76917.25
2022-09-22T20:14:25.388Z,76921.31
2022-09-22T20:17:01.901Z,76925.34
2022-09-22T20:19:35.181Z,76917.25
2022-09-22T20:22:25.334Z,76915.22
2022-09-22T20:24:55.737Z,76915.22
2022-09-22T20:27:36.776Z,76915.22
2022-09-22T20:30:04.420Z,76925.34
2022-09-22T20:32:32.191Z,76929.41
2022-09-22T20:34:59.451Z,76933.47
2022-09-22T20:37:26.501Z,76937.53
2022-09-22T20:39:53.612Z,76929.41
2022-09-22T20:42:20.529Z,76933.47
2022-09-22T20:44:49.120Z,76937.53
2022-09-22T20:47:18.319Z,76943.59
2022-09-22T20:49:50.678Z,76943.59
2022-09-22T20:52:20.165Z,76941.56
2022-09-22T20:54:47.862Z,76941.56
2022-09-22T20:57:14.906Z,76941.56
2022-09-22T20:59:45.100Z,76941.56
2022-09-22T21:02:14.252Z,76945.63
2022-09-22T21:04:41.568Z,76941.56
2022-09-22T21:07:09.027Z,76927.38
2022-09-22T21:09:54.353Z,76923.31
2022-09-22T21:12:21.454Z,76925.34
2022-09-22T21:14:48.820Z,76923.31
2022-09-22T21:17:15.686Z,76925.34
2022-09-22T21:19:43.335Z,76931.44
2022-09-22T21:22:10.438Z,76931.44
2022-09-22T21:24:37.280Z,76931.44
2022-09-22T21:27:05.213Z,76929.41
2022-09-22T21:29:32.276Z,76925.34
2022-09-22T21:32:00.146Z,76921.31
2022-09-22T21:34:27.760Z,76925.34
2022-09-22T21:37:14.519Z,76913.19
2022-09-22T21:39:41.632Z,76917.25
2022-09-22T21:42:08.447Z,76919.28
2022-09-22T21:44:35.479Z,76921.31
2022-09-22T21:47:02.459Z,76921.31
2022-09-22T21:49:29.258Z,76929.41
2022-09-22T21:51:56.025Z,76925.34
2022-09-22T21:54:23.197Z,76923.31
2022-09-22T21:56:50.741Z,76921.31
2022-09-22T21:59:18.051Z,76925.34
2022-09-22T22:01:45.247Z,76921.31
2022-09-22T22:04:15.149Z,76923.31
2022-09-22T22:06:44.186Z,76921.31
2022-09-22T22:09:18.325Z,76917.25
2022-09-22T22:11:55.509Z,76917.25
2022-09-22T22:14:25.558Z,76921.31
2022-09-22T22:16:54.405Z,76917.25
2022-09-22T22:19:24.861Z,76917.25
2022-09-22T22:21:52.293Z,76921.31
2022-09-22T22:24:24.682Z,76921.31
2022-09-22T22:26:56.814Z,76921.31
2022-09-22T22:29:26.159Z,76921.31
2022-09-22T22:31:53.547Z,76921.31
2022-09-22T22:34:23.172Z,76921.31
2022-09-22T22:36:50.312Z,76933.47
2022-09-22T22:39:17.127Z,76939.53
2022-09-22T22:41:44.615Z,76933.47
2022-09-22T22:44:17.817Z,76937.53
2022-09-22T22:46:46.137Z,76945.63
2022-09-22T22:49:13.576Z,76949.69
2022-09-22T22:51:43.296Z,76953.75
2022-09-22T22:54:11.974Z,76953.75
2022-09-22T22:56:42.313Z,76965.91
2022-09-22T22:59:10.018Z,76967.94
2022-09-22T23:01:37.437Z,76976.03
2022-09-22T23:04:06.642Z,76969.94
2022-09-22T23:06:37.672Z,76982.13
2022-09-22T23:09:06.670Z,76992.25
2022-09-22T23:11:37.525Z,76990.22
2022-09-22T23:14:06.938Z,76994.28
2022-09-22T23:16:39.714Z,76990.22
2022-09-22T23:19:08.754Z,77002.41
2022-09-22T23:21:37.691Z,77014.56
2022-09-22T23:24:05.429Z,77014.56
2022-09-22T23:26:32.361Z,77016.59
2022-09-22T23:28:59.756Z,77022.66
2022-09-22T23:31:27.780Z,77030.78
2022-09-22T23:33:54.678Z,77032.81
2022-09-22T23:36:26.789Z,77034.84
2022-09-22T23:38:55.877Z,77038.88
2022-09-22T23:41:23.372Z,77044.97
2022-09-22T23:43:50.345Z,77055.09
2022-09-22T23:46:17.589Z,77055.09
2022-09-22T23:48:44.907Z,77057.13
2022-09-22T23:51:11.811Z,77067.28
2022-09-22T23:53:38.932Z,77067.28
2022-09-22T23:56:07.530Z,77067.28
2022-09-22T23:58:34.790Z,77071.31
